Terminal Aerodrome Forecast
Issued by NWS Mt. Holly, NJ

Home | Current Version | Previous Version | Text Only | Print | Product List | Glossary On
Versions: 1 2 3 4 5 6 7 8 9 10 11 12 13 14 15 16 17 18 19 20 21 22 23 24 25
000
FTUS41 KPHI 251502 AAA
TAFTTN
TAF AMD
KTTN 251502Z 2515/2612 08004KT P6SM OVC009
     FM251600 05005KT P6SM BKN015
     FM251800 03007KT P6SM BKN030
     FM252000 02007KT P6SM BKN050
     FM260600 03005KT P6SM OVC020=

USA.gov is the U.S. government's official web portal to all federal, state and local government web resources and services.